sensor_id;sensor_type;location;lat;lon;timestamp;P1;durP1;ratioP1;P2;durP2;ratioP2
75285;SDS011;63879;46.064;14.532;2022-12-13T07:01:51;16.65;;;6.93;;
75285;SDS011;63879;46.064;14.532;2022-12-13T07:04:17;15.77;;;7.45;;
75285;SDS011;63879;46.064;14.532;2022-12-13T07:06:42;19.77;;;8.40;;
75285;SDS011;63879;46.064;14.532;2022-12-13T07:09:08;15.45;;;7.10;;
75285;SDS011;63879;46.064;14.532;2022-12-13T07:11:33;12.77;;;7.03;;
75285;SDS011;63879;46.064;14.532;2022-12-13T07:13:59;17.27;;;8.40;;
75285;SDS011;63879;46.064;14.532;2022-12-13T07:16:25;16.42;;;7.28;;
75285;SDS011;63879;46.064;14.532;2022-12-13T07:18:55;13.93;;;6.78;;
75285;SDS011;63879;46.064;14.532;2022-12-13T07:21:21;13.60;;;6.80;;
75285;SDS011;63879;46.064;14.532;2022-12-13T07:23:46;17.35;;;7.45;;
75285;SDS011;63879;46.064;14.532;2022-12-13T07:26:12;17.13;;;7.40;;
75285;SDS011;63879;46.064;14.532;2022-12-13T07:28:38;13.93;;;7.13;;
75285;SDS011;63879;46.064;14.532;2022-12-13T07:31:05;14.82;;;7.68;;
75285;SDS011;63879;46.064;14.532;2022-12-13T07:33:33;15.38;;;7.50;;
75285;SDS011;63879;46.064;14.532;2022-12-13T07:36:01;15.50;;;6.93;;
75285;SDS011;63879;46.064;14.532;2022-12-13T07:38:27;17.45;;;7.30;;
75285;SDS011;63879;46.064;14.532;2022-12-13T07:40:54;15.75;;;7.38;;
75285;SDS011;63879;46.064;14.532;2022-12-13T07:43:20;14.50;;;6.72;;
75285;SDS011;63879;46.064;14.532;2022-12-13T07:45:45;14.90;;;7.47;;
75285;SDS011;63879;46.064;14.532;2022-12-13T07:48:11;12.97;;;6.70;;
75285;SDS011;63879;46.064;14.532;2022-12-13T07:50:36;13.93;;;7.53;;
75285;SDS011;63879;46.064;14.532;2022-12-13T07:53:05;15.70;;;7.00;;
75285;SDS011;63879;46.064;14.532;2022-12-13T07:55:32;17.25;;;8.35;;
75285;SDS011;63879;46.064;14.532;2022-12-13T07:58:08;14.68;;;7.63;;
75285;SDS011;63879;46.064;14.532;2022-12-13T08:00:35;17.63;;;8.88;;
75285;SDS011;63879;46.064;14.532;2022-12-13T08:03:02;19.08;;;9.57;;
75285;SDS011;63879;46.064;14.532;2022-12-13T08:05:28;18.50;;;8.93;;
75285;SDS011;63879;46.064;14.532;2022-12-13T08:07:58;17.83;;;9.93;;
75285;SDS011;63879;46.064;14.532;2022-12-13T08:10:24;15.68;;;8.25;;
75285;SDS011;63879;46.064;14.532;2022-12-13T08:12:49;17.10;;;9.13;;
75285;SDS011;63879;46.064;14.532;2022-12-13T08:15:15;20.65;;;9.77;;
75285;SDS011;63879;46.064;14.532;2022-12-13T08:17:41;22.50;;;9.18;;
75285;SDS011;63879;46.064;14.532;2022-12-13T08:20:06;19.73;;;9.43;;
75285;SDS011;63879;46.064;14.532;2022-12-13T08:22:32;19.67;;;9.43;;
75285;SDS011;63879;46.064;14.532;2022-12-13T08:24:57;21.37;;;10.40;;
75285;SDS011;63879;46.064;14.532;2022-12-13T08:27:23;20.30;;;10.63;;
75285;SDS011;63879;46.064;14.532;2022-12-13T08:29:48;20.87;;;10.67;;
75285;SDS011;63879;46.064;14.532;2022-12-13T08:32:14;21.40;;;9.80;;
75285;SDS011;63879;46.064;14.532;2022-12-13T08:34:40;21.23;;;10.15;;
75285;SDS011;63879;46.064;14.532;2022-12-13T08:37:05;18.20;;;8.43;;
75285;SDS011;63879;46.064;14.532;2022-12-13T08:39:31;21.58;;;9.43;;
75285;SDS011;63879;46.064;14.532;2022-12-13T08:42:19;19.50;;;10.07;;
75285;SDS011;63879;46.064;14.532;2022-12-13T08:44:45;22.15;;;9.63;;
75285;SDS011;63879;46.064;14.532;2022-12-13T08:47:14;19.73;;;9.32;;
75285;SDS011;63879;46.064;14.532;2022-12-13T08:49:40;19.45;;;9.15;;
75285;SDS011;63879;46.064;14.532;2022-12-13T08:52:05;23.50;;;10.57;;
75285;SDS011;63879;46.064;14.532;2022-12-13T08:54:34;24.30;;;10.63;;
75285;SDS011;63879;46.064;14.532;2022-12-13T08:59:27;21.30;;;10.02;;
75285;SDS011;63879;46.064;14.532;2022-12-13T09:01:53;22.77;;;11.30;;
75285;SDS011;63879;46.064;14.532;2022-12-13T09:04:18;25.67;;;10.95;;
75285;SDS011;63879;46.064;14.532;2022-12-13T09:06:44;20.38;;;11.35;;
75285;SDS011;63879;46.064;14.532;2022-12-13T09:09:09;23.80;;;11.65;;
75285;SDS011;63879;46.064;14.532;2022-12-13T09:11:35;20.98;;;9.88;;
75285;SDS011;63879;46.064;14.532;2022-12-13T09:14:02;17.08;;;6.88;;
75285;SDS011;63879;46.064;14.532;2022-12-13T09:16:28;21.83;;;9.45;;
75285;SDS011;63879;46.064;14.532;2022-12-13T09:18:54;22.25;;;9.25;;
75285;SDS011;63879;46.064;14.532;2022-12-13T09:21:19;20.30;;;9.05;;
75285;SDS011;63879;46.064;14.532;2022-12-13T09:23:45;20.93;;;8.80;;
75285;SDS011;63879;46.064;14.532;2022-12-13T09:26:11;16.80;;;7.05;;
75285;SDS011;63879;46.064;14.532;2022-12-13T09:28:38;20.08;;;9.02;;
75285;SDS011;63879;46.064;14.532;2022-12-13T09:31:07;21.45;;;9.27;;
75285;SDS011;63879;46.064;14.532;2022-12-13T09:33:33;22.85;;;10.95;;
75285;SDS011;63879;46.064;14.532;2022-12-13T09:36:01;26.75;;;11.43;;
75285;SDS011;63879;46.064;14.532;2022-12-13T09:38:29;20.77;;;9.73;;
75285;SDS011;63879;46.064;14.532;2022-12-13T09:40:55;16.48;;;8.57;;
75285;SDS011;63879;46.064;14.532;2022-12-13T09:43:23;21.20;;;8.63;;
75285;SDS011;63879;46.064;14.532;2022-12-13T09:45:51;19.58;;;10.13;;
75285;SDS011;63879;46.064;14.532;2022-12-13T09:48:17;15.85;;;7.90;;
75285;SDS011;63879;46.064;14.532;2022-12-13T09:50:44;23.05;;;11.40;;
75285;SDS011;63879;46.064;14.532;2022-12-13T09:53:10;23.95;;;10.20;;
75285;SDS011;63879;46.064;14.532;2022-12-13T09:55:44;21.58;;;11.10;;
75285;SDS011;63879;46.064;14.532;2022-12-13T09:58:13;24.45;;;11.40;;
75285;SDS011;63879;46.064;14.532;2022-12-13T10:00:44;24.25;;;10.00;;
75285;SDS011;63879;46.064;14.532;2022-12-13T10:03:12;18.75;;;9.32;;
75285;SDS011;63879;46.064;14.532;2022-12-13T10:05:38;21.70;;;10.27;;
75285;SDS011;63879;46.064;14.532;2022-12-13T10:08:10;22.33;;;10.23;;
75285;SDS011;63879;46.064;14.532;2022-12-13T10:10:37;21.13;;;9.68;;
75285;SDS011;63879;46.064;14.532;2022-12-13T10:13:16;22.38;;;10.60;;
75285;SDS011;63879;46.064;14.532;2022-12-13T10:15:44;24.88;;;10.95;;
75285;SDS011;63879;46.064;14.532;2022-12-13T10:18:16;15.82;;;8.57;;
75285;SDS011;63879;46.064;14.532;2022-12-13T10:20:48;21.38;;;9.77;;
75285;SDS011;63879;46.064;14.532;2022-12-13T10:23:14;18.95;;;8.23;;
75285;SDS011;63879;46.064;14.532;2022-12-13T10:25:46;21.90;;;8.83;;
75285;SDS011;63879;46.064;14.532;2022-12-13T10:28:18;18.10;;;9.02;;
75285;SDS011;63879;46.064;14.532;2022-12-13T10:30:50;18.65;;;8.73;;
75285;SDS011;63879;46.064;14.532;2022-12-13T10:33:19;22.47;;;9.67;;
75285;SDS011;63879;46.064;14.532;2022-12-13T10:36:00;18.50;;;8.32;;
75285;SDS011;63879;46.064;14.532;2022-12-13T10:40:52;16.63;;;7.85;;
75285;SDS011;63879;46.064;14.532;2022-12-13T10:43:19;21.53;;;8.57;;
75285;SDS011;63879;46.064;14.532;2022-12-13T10:49:05;19.85;;;9.88;;
75285;SDS011;63879;46.064;14.532;2022-12-13T10:51:13;18.13;;;9.27;;
75285;SDS011;63879;46.064;14.532;2022-12-13T10:53:49;22.98;;;10.27;;
75285;SDS011;63879;46.064;14.532;2022-12-13T10:56:18;17.45;;;7.93;;
75285;SDS011;63879;46.064;14.532;2022-12-13T10:58:51;20.15;;;10.10;;
75285;SDS011;63879;46.064;14.532;2022-12-13T11:03:54;19.13;;;8.67;;
75285;SDS011;63879;46.064;14.532;2022-12-13T11:06:21;18.35;;;10.07;;
75285;SDS011;63879;46.064;14.532;2022-12-13T11:08:46;20.75;;;8.93;;
75285;SDS011;63879;46.064;14.532;2022-12-13T11:11:12;20.35;;;9.85;;
75285;SDS011;63879;46.064;14.532;2022-12-13T11:13:43;18.45;;;9.20;;
75285;SDS011;63879;46.064;14.532;2022-12-13T11:19:01;20.35;;;9.48;;
75285;SDS011;63879;46.064;14.532;2022-12-13T11:21:29;19.88;;;10.77;;
75285;SDS011;63879;46.064;14.532;2022-12-13T11:24:00;20.17;;;8.60;;
75285;SDS011;63879;46.064;14.532;2022-12-13T11:26:27;19.95;;;9.63;;
75285;SDS011;63879;46.064;14.532;2022-12-13T11:36:49;17.00;;;9.23;;
75285;SDS011;63879;46.064;14.532;2022-12-13T11:39:23;20.13;;;9.10;;
75285;SDS011;63879;46.064;14.532;2022-12-13T11:41:53;18.70;;;9.20;;
75285;SDS011;63879;46.064;14.532;2022-12-13T11:46:54;21.85;;;9.75;;
75285;SDS011;63879;46.064;14.532;2022-12-13T11:55:07;19.38;;;8.82;;
75285;SDS011;63879;46.064;14.532;2022-12-13T11:57:53;21.17;;;9.13;;
75285;SDS011;63879;46.064;14.532;2022-12-13T12:00:33;18.13;;;9.45;;
75285;SDS011;63879;46.064;14.532;2022-12-13T12:05:34;20.40;;;8.52;;
75285;SDS011;63879;46.064;14.532;2022-12-13T12:08:09;15.63;;;8.52;;
75285;SDS011;63879;46.064;14.532;2022-12-13T12:10:40;20.35;;;9.65;;
75285;SDS011;63879;46.064;14.532;2022-12-13T12:15:44;19.90;;;10.18;;
75285;SDS011;63879;46.064;14.532;2022-12-13T12:18:23;24.25;;;10.27;;
75285;SDS011;63879;46.064;14.532;2022-12-13T12:21:14;20.00;;;9.87;;
75285;SDS011;63879;46.064;14.532;2022-12-13T12:26:51;15.65;;;9.52;;
75285;SDS011;63879;46.064;14.532;2022-12-13T12:32:06;20.33;;;9.95;;
75285;SDS011;63879;46.064;14.532;2022-12-13T12:42:29;21.15;;;9.50;;
75285;SDS011;63879;46.064;14.532;2022-12-13T12:50:49;21.77;;;9.32;;
75285;SDS011;63879;46.064;14.532;2022-12-13T13:01:36;18.90;;;9.10;;
75285;SDS011;63879;46.064;14.532;2022-12-13T13:04:07;18.55;;;10.05;;
75285;SDS011;63879;46.064;14.532;2022-12-13T13:06:41;23.30;;;12.15;;
75285;SDS011;63879;46.064;14.532;2022-12-13T13:09:10;19.13;;;10.48;;
75285;SDS011;63879;46.064;14.532;2022-12-13T13:11:37;20.20;;;10.32;;
75285;SDS011;63879;46.064;14.532;2022-12-13T13:14:24;22.73;;;10.25;;
75285;SDS011;63879;46.064;14.532;2022-12-13T13:16:57;22.95;;;11.45;;
75285;SDS011;63879;46.064;14.532;2022-12-13T13:22:47;19.33;;;9.63;;
75285;SDS011;63879;46.064;14.532;2022-12-13T13:28:16;20.70;;;9.32;;
75285;SDS011;63879;46.064;14.532;2022-12-13T13:31:00;17.80;;;9.15;;
75285;SDS011;63879;46.064;14.532;2022-12-13T13:33:38;23.02;;;9.32;;
75285;SDS011;63879;46.064;14.532;2022-12-13T13:36:10;18.70;;;9.35;;
75285;SDS011;63879;46.064;14.532;2022-12-13T13:39:13;18.40;;;9.13;;
75285;SDS011;63879;46.064;14.532;2022-12-13T13:41:40;20.98;;;9.90;;
75285;SDS011;63879;46.064;14.532;2022-12-13T13:47:11;21.55;;;10.35;;
75285;SDS011;63879;46.064;14.532;2022-12-13T13:52:24;17.73;;;9.40;;
75285;SDS011;63879;46.064;14.532;2022-12-13T14:00:19;16.77;;;9.70;;
75285;SDS011;63879;46.064;14.532;2022-12-13T14:02:57;18.33;;;9.38;;
75285;SDS011;63879;46.064;14.532;2022-12-13T14:21:54;16.42;;;8.93;;
75285;SDS011;63879;46.064;14.532;2022-12-13T14:24:41;21.50;;;10.10;;
75285;SDS011;63879;46.064;14.532;2022-12-13T14:30:14;15.10;;;8.48;;
75285;SDS011;63879;46.064;14.532;2022-12-13T14:32:42;22.10;;;9.60;;
75285;SDS011;63879;46.064;14.532;2022-12-13T14:35:20;18.85;;;9.07;;
75285;SDS011;63879;46.064;14.532;2022-12-13T14:37:55;18.25;;;9.25;;
75285;SDS011;63879;46.064;14.532;2022-12-13T14:40:36;28.17;;;11.40;;
75285;SDS011;63879;46.064;14.532;2022-12-13T14:43:25;18.20;;;9.63;;
75285;SDS011;63879;46.064;14.532;2022-12-13T14:45:56;17.52;;;9.18;;
75285;SDS011;63879;46.064;14.532;2022-12-13T14:48:23;19.15;;;9.65;;
75285;SDS011;63879;46.064;14.532;2022-12-13T14:50:48;24.10;;;10.60;;
75285;SDS011;63879;46.064;14.532;2022-12-13T14:53:21;19.98;;;10.38;;
75285;SDS011;63879;46.064;14.532;2022-12-13T14:56:10;22.30;;;10.95;;
75285;SDS011;63879;46.064;14.532;2022-12-13T14:58:34;20.10;;;9.90;;
75285;SDS011;63879;46.064;14.532;2022-12-13T15:01:01;17.65;;;9.57;;
75285;SDS011;63879;46.064;14.532;2022-12-13T15:03:47;19.65;;;10.43;;
75285;SDS011;63879;46.064;14.532;2022-12-13T15:06:12;22.43;;;10.03;;
75285;SDS011;63879;46.064;14.532;2022-12-13T15:08:38;19.17;;;9.68;;
75285;SDS011;63879;46.064;14.532;2022-12-13T15:11:07;20.92;;;10.82;;
75285;SDS011;63879;46.064;14.532;2022-12-13T15:16:02;18.23;;;10.15;;
75285;SDS011;63879;46.064;14.532;2022-12-13T15:18:36;21.20;;;10.38;;
75285;SDS011;63879;46.064;14.532;2022-12-13T15:21:02;19.45;;;10.52;;
75285;SDS011;63879;46.064;14.532;2022-12-13T15:28:27;20.48;;;10.88;;
75285;SDS011;63879;46.064;14.532;2022-12-13T15:30:55;15.98;;;9.48;;
75285;SDS011;63879;46.064;14.532;2022-12-13T15:33:23;19.58;;;10.02;;
75285;SDS011;63879;46.064;14.532;2022-12-13T15:35:59;17.58;;;9.07;;
75285;SDS011;63879;46.064;14.532;2022-12-13T15:38:28;21.80;;;9.50;;
75285;SDS011;63879;46.064;14.532;2022-12-13T15:40:54;21.25;;;11.32;;
75285;SDS011;63879;46.064;14.532;2022-12-13T15:43:20;21.90;;;10.05;;
75285;SDS011;63879;46.064;14.532;2022-12-13T15:45:47;19.92;;;10.65;;
75285;SDS011;63879;46.064;14.532;2022-12-13T15:51:09;21.20;;;10.57;;
75285;SDS011;63879;46.064;14.532;2022-12-13T15:53:36;22.63;;;11.18;;
75285;SDS011;63879;46.064;14.532;2022-12-13T15:56:25;20.77;;;11.35;;
75285;SDS011;63879;46.064;14.532;2022-12-13T15:58:55;25.35;;;11.73;;
75285;SDS011;63879;46.064;14.532;2022-12-13T16:01:30;26.50;;;11.95;;
75285;SDS011;63879;46.064;14.532;2022-12-13T16:04:01;24.92;;;12.15;;
75285;SDS011;63879;46.064;14.532;2022-12-13T16:06:27;40.33;;;18.35;;
75285;SDS011;63879;46.064;14.532;2022-12-13T16:08:55;28.75;;;14.27;;
75285;SDS011;63879;46.064;14.532;2022-12-13T16:11:26;22.25;;;12.20;;
75285;SDS011;63879;46.064;14.532;2022-12-13T16:14:21;22.50;;;10.48;;
75285;SDS011;63879;46.064;14.532;2022-12-13T16:17:01;22.00;;;11.13;;
75285;SDS011;63879;46.064;14.532;2022-12-13T16:19:30;22.52;;;10.85;;
75285;SDS011;63879;46.064;14.532;2022-12-13T16:21:56;24.13;;;11.02;;
75285;SDS011;63879;46.064;14.532;2022-12-13T16:24:21;18.17;;;10.15;;
75285;SDS011;63879;46.064;14.532;2022-12-13T16:26:47;25.03;;;10.63;;
75285;SDS011;63879;46.064;14.532;2022-12-13T16:29:13;19.25;;;10.55;;
75285;SDS011;63879;46.064;14.532;2022-12-13T16:31:40;20.48;;;10.95;;
75285;SDS011;63879;46.064;14.532;2022-12-13T16:34:08;21.73;;;11.52;;
75285;SDS011;63879;46.064;14.532;2022-12-13T16:36:35;20.65;;;10.75;;
75285;SDS011;63879;46.064;14.532;2022-12-13T16:39:00;15.32;;;9.90;;
75285;SDS011;63879;46.064;14.532;2022-12-13T16:41:26;26.85;;;12.32;;
75285;SDS011;63879;46.064;14.532;2022-12-13T16:46:18;28.27;;;12.80;;
75285;SDS011;63879;46.064;14.532;2022-12-13T16:48:43;25.63;;;12.73;;
75285;SDS011;63879;46.064;14.532;2022-12-13T16:51:08;21.23;;;11.30;;
75285;SDS011;63879;46.064;14.532;2022-12-13T16:53:34;21.40;;;10.48;;
75285;SDS011;63879;46.064;14.532;2022-12-13T16:55:59;17.87;;;10.10;;
75285;SDS011;63879;46.064;14.532;2022-12-13T16:58:25;24.88;;;11.70;;
75285;SDS011;63879;46.064;14.532;2022-12-13T17:00:50;22.00;;;11.50;;
75285;SDS011;63879;46.064;14.532;2022-12-13T17:03:15;24.95;;;12.88;;
75285;SDS011;63879;46.064;14.532;2022-12-13T17:05:42;26.92;;;14.32;;
75285;SDS011;63879;46.064;14.532;2022-12-13T17:08:11;28.70;;;14.88;;
75285;SDS011;63879;46.064;14.532;2022-12-13T17:10:38;28.95;;;14.38;;
75285;SDS011;63879;46.064;14.532;2022-12-13T17:13:04;33.45;;;17.13;;
75285;SDS011;63879;46.064;14.532;2022-12-13T17:15:29;35.67;;;17.35;;
75285;SDS011;63879;46.064;14.532;2022-12-13T17:17:54;29.85;;;16.42;;
75285;SDS011;63879;46.064;14.532;2022-12-13T17:20:20;33.35;;;16.55;;
75285;SDS011;63879;46.064;14.532;2022-12-13T17:22:45;30.15;;;14.93;;
75285;SDS011;63879;46.064;14.532;2022-12-13T17:25:11;32.93;;;16.07;;
75285;SDS011;63879;46.064;14.532;2022-12-13T17:27:37;30.70;;;15.23;;
75285;SDS011;63879;46.064;14.532;2022-12-13T17:30:03;31.58;;;15.55;;
75285;SDS011;63879;46.064;14.532;2022-12-13T17:32:31;29.48;;;15.57;;
75285;SDS011;63879;46.064;14.532;2022-12-13T17:34:56;33.17;;;15.93;;
75285;SDS011;63879;46.064;14.532;2022-12-13T17:37:21;31.75;;;14.18;;
75285;SDS011;63879;46.064;14.532;2022-12-13T17:39:47;32.25;;;14.55;;
75285;SDS011;63879;46.064;14.532;2022-12-13T17:42:13;25.98;;;13.18;;
75285;SDS011;63879;46.064;14.532;2022-12-13T17:44:38;26.77;;;14.55;;
75285;SDS011;63879;46.064;14.532;2022-12-13T17:47:04;25.58;;;13.48;;
75285;SDS011;63879;46.064;14.532;2022-12-13T17:49:29;27.73;;;13.88;;
75285;SDS011;63879;46.064;14.532;2022-12-13T17:51:58;25.60;;;13.20;;
75285;SDS011;63879;46.064;14.532;2022-12-13T17:54:27;24.70;;;12.23;;
75285;SDS011;63879;46.064;14.532;2022-12-13T17:56:53;27.98;;;13.35;;
75285;SDS011;63879;46.064;14.532;2022-12-13T17:59:19;29.95;;;13.95;;
75285;SDS011;63879;46.064;14.532;2022-12-13T18:01:45;32.85;;;14.57;;
75285;SDS011;63879;46.064;14.532;2022-12-13T18:04:11;28.90;;;13.98;;
75285;SDS011;63879;46.064;14.532;2022-12-13T18:06:36;28.15;;;13.65;;
75285;SDS011;63879;46.064;14.532;2022-12-13T18:09:02;30.08;;;14.38;;
75285;SDS011;63879;46.064;14.532;2022-12-13T18:11:28;29.27;;;13.68;;
75285;SDS011;63879;46.064;14.532;2022-12-13T18:13:54;24.25;;;12.90;;
75285;SDS011;63879;46.064;14.532;2022-12-13T18:16:20;29.08;;;13.65;;
75285;SDS011;63879;46.064;14.532;2022-12-13T18:18:45;27.20;;;13.25;;
75285;SDS011;63879;46.064;14.532;2022-12-13T18:21:15;27.70;;;13.85;;
75285;SDS011;63879;46.064;14.532;2022-12-13T18:23:41;29.17;;;13.45;;
75285;SDS011;63879;46.064;14.532;2022-12-13T18:26:09;28.27;;;12.55;;
75285;SDS011;63879;46.064;14.532;2022-12-13T18:28:36;26.75;;;13.25;;
75285;SDS011;63879;46.064;14.532;2022-12-13T18:31:03;28.35;;;13.38;;
75285;SDS011;63879;46.064;14.532;2022-12-13T18:33:30;28.83;;;14.20;;
75285;SDS011;63879;46.064;14.532;2022-12-13T18:35:56;29.27;;;13.55;;
75285;SDS011;63879;46.064;14.532;2022-12-13T18:38:21;27.20;;;13.57;;
75285;SDS011;63879;46.064;14.532;2022-12-13T18:40:48;32.25;;;13.95;;
75285;SDS011;63879;46.064;14.532;2022-12-13T18:43:14;27.17;;;13.88;;
75285;SDS011;63879;46.064;14.532;2022-12-13T18:45:40;27.15;;;13.43;;
75285;SDS011;63879;46.064;14.532;2022-12-13T18:48:05;26.00;;;12.70;;
75285;SDS011;63879;46.064;14.532;2022-12-13T18:50:32;25.50;;;13.93;;
75285;SDS011;63879;46.064;14.532;2022-12-13T18:52:57;26.33;;;12.73;;
75285;SDS011;63879;46.064;14.532;2022-12-13T18:55:23;24.20;;;13.57;;
75285;SDS011;63879;46.064;14.532;2022-12-13T18:57:49;25.13;;;12.90;;
75285;SDS011;63879;46.064;14.532;2022-12-13T19:00:15;26.00;;;12.95;;
75285;SDS011;63879;46.064;14.532;2022-12-13T19:02:41;25.35;;;13.43;;
75285;SDS011;63879;46.064;14.532;2022-12-13T19:05:06;29.15;;;13.63;;
75285;SDS011;63879;46.064;14.532;2022-12-13T19:07:32;28.25;;;13.80;;
75285;SDS011;63879;46.064;14.532;2022-12-13T19:09:57;26.00;;;13.05;;
75285;SDS011;63879;46.064;14.532;2022-12-13T19:12:23;24.57;;;12.83;;
75285;SDS011;63879;46.064;14.532;2022-12-13T19:14:48;27.90;;;13.63;;
75285;SDS011;63879;46.064;14.532;2022-12-13T19:17:13;27.03;;;13.00;;
75285;SDS011;63879;46.064;14.532;2022-12-13T19:19:39;30.57;;;15.13;;
75285;SDS011;63879;46.064;14.532;2022-12-13T19:22:04;33.40;;;15.50;;
75285;SDS011;63879;46.064;14.532;2022-12-13T19:24:29;32.43;;;14.93;;
75285;SDS011;63879;46.064;14.532;2022-12-13T19:26:55;29.27;;;14.43;;
75285;SDS011;63879;46.064;14.532;2022-12-13T19:29:41;29.52;;;15.07;;
75285;SDS011;63879;46.064;14.532;2022-12-13T19:32:06;28.50;;;15.23;;
75285;SDS011;63879;46.064;14.532;2022-12-13T19:34:32;30.90;;;15.63;;
75285;SDS011;63879;46.064;14.532;2022-12-13T19:36:57;29.10;;;14.75;;
75285;SDS011;63879;46.064;14.532;2022-12-13T19:39:22;29.27;;;15.20;;
75285;SDS011;63879;46.064;14.532;2022-12-13T19:41:49;30.65;;;14.55;;
75285;SDS011;63879;46.064;14.532;2022-12-13T19:44:14;28.80;;;14.15;;
75285;SDS011;63879;46.064;14.532;2022-12-13T19:46:40;28.48;;;13.20;;
75285;SDS011;63879;46.064;14.532;2022-12-13T19:49:09;31.15;;;15.07;;
75285;SDS011;63879;46.064;14.532;2022-12-13T19:51:35;29.35;;;15.05;;
75285;SDS011;63879;46.064;14.532;2022-12-13T19:54:01;28.67;;;14.88;;
75285;SDS011;63879;46.064;14.532;2022-12-13T19:56:27;32.30;;;14.90;;
75285;SDS011;63879;46.064;14.532;2022-12-13T19:58:52;34.85;;;16.55;;
75285;SDS011;63879;46.064;14.532;2022-12-13T20:01:18;31.25;;;15.00;;
75285;SDS011;63879;46.064;14.532;2022-12-13T20:03:44;30.48;;;14.05;;
75285;SDS011;63879;46.064;14.532;2022-12-13T20:06:11;29.92;;;15.23;;
75285;SDS011;63879;46.064;14.532;2022-12-13T20:08:38;28.27;;;16.20;;
75285;SDS011;63879;46.064;14.532;2022-12-13T20:11:06;31.88;;;14.60;;
75285;SDS011;63879;46.064;14.532;2022-12-13T20:13:33;31.90;;;14.18;;
75285;SDS011;63879;46.064;14.532;2022-12-13T20:16:02;30.17;;;14.93;;
75285;SDS011;63879;46.064;14.532;2022-12-13T20:18:31;30.25;;;15.00;;
75285;SDS011;63879;46.064;14.532;2022-12-13T20:21:01;28.75;;;14.50;;
75285;SDS011;63879;46.064;14.532;2022-12-13T20:23:27;31.80;;;15.57;;
75285;SDS011;63879;46.064;14.532;2022-12-13T20:26:04;28.67;;;14.17;;
75285;SDS011;63879;46.064;14.532;2022-12-13T20:28:31;29.92;;;15.23;;
75285;SDS011;63879;46.064;14.532;2022-12-13T20:33:29;28.05;;;15.77;;
75285;SDS011;63879;46.064;14.532;2022-12-13T20:35:54;31.75;;;15.20;;
75285;SDS011;63879;46.064;14.532;2022-12-13T20:38:25;28.35;;;13.88;;
75285;SDS011;63879;46.064;14.532;2022-12-13T20:40:50;29.80;;;15.23;;
75285;SDS011;63879;46.064;14.532;2022-12-13T20:43:16;31.95;;;14.55;;
75285;SDS011;63879;46.064;14.532;2022-12-13T20:45:41;33.03;;;14.95;;
75285;SDS011;63879;46.064;14.532;2022-12-13T20:48:07;30.95;;;14.85;;
75285;SDS011;63879;46.064;14.532;2022-12-13T20:50:32;34.38;;;16.25;;
75285;SDS011;63879;46.064;14.532;2022-12-13T20:52:57;30.92;;;15.93;;
75285;SDS011;63879;46.064;14.532;2022-12-13T20:55:23;33.20;;;15.83;;
75285;SDS011;63879;46.064;14.532;2022-12-13T20:57:50;30.77;;;14.50;;
75285;SDS011;63879;46.064;14.532;2022-12-13T21:00:15;31.20;;;15.02;;
75285;SDS011;63879;46.064;14.532;2022-12-13T21:02:41;34.05;;;17.05;;
75285;SDS011;63879;46.064;14.532;2022-12-13T21:05:08;35.08;;;15.45;;
75285;SDS011;63879;46.064;14.532;2022-12-13T21:07:33;35.08;;;16.45;;
75285;SDS011;63879;46.064;14.532;2022-12-13T21:10:17;32.72;;;15.27;;
75285;SDS011;63879;46.064;14.532;2022-12-13T21:12:43;31.30;;;15.00;;
75285;SDS011;63879;46.064;14.532;2022-12-13T21:15:08;36.67;;;17.35;;
75285;SDS011;63879;46.064;14.532;2022-12-13T21:17:34;35.92;;;18.33;;
75285;SDS011;63879;46.064;14.532;2022-12-13T21:20:00;40.53;;;17.88;;
75285;SDS011;63879;46.064;14.532;2022-12-13T21:22:26;33.78;;;16.27;;
75285;SDS011;63879;46.064;14.532;2022-12-13T21:24:51;33.67;;;15.45;;
75285;SDS011;63879;46.064;14.532;2022-12-13T21:27:16;28.87;;;14.77;;
75285;SDS011;63879;46.064;14.532;2022-12-13T21:29:42;33.38;;;14.25;;
75285;SDS011;63879;46.064;14.532;2022-12-13T21:32:07;28.43;;;13.83;;
75285;SDS011;63879;46.064;14.532;2022-12-13T21:34:32;29.60;;;13.33;;
75285;SDS011;63879;46.064;14.532;2022-12-13T21:36:58;28.77;;;13.73;;
75285;SDS011;63879;46.064;14.532;2022-12-13T21:39:24;27.60;;;13.23;;
75285;SDS011;63879;46.064;14.532;2022-12-13T21:41:53;25.80;;;13.45;;
75285;SDS011;63879;46.064;14.532;2022-12-13T21:44:19;32.85;;;14.90;;
75285;SDS011;63879;46.064;14.532;2022-12-13T21:46:45;28.52;;;14.30;;
75285;SDS011;63879;46.064;14.532;2022-12-13T21:49:10;27.85;;;14.20;;
75285;SDS011;63879;46.064;14.532;2022-12-13T21:51:36;29.17;;;13.93;;
75285;SDS011;63879;46.064;14.532;2022-12-13T21:54:01;29.07;;;14.03;;
75285;SDS011;63879;46.064;14.532;2022-12-13T21:56:27;25.73;;;13.43;;
75285;SDS011;63879;46.064;14.532;2022-12-13T21:59:13;28.55;;;13.88;;
